Observation data for Aspermont on 03/24/2019      Previous  Date  Next       Current Mesonet Observations  Soil Data  Daily Summary Page  Observations in Plain Language
KASR 240505Z 19008KT 13/02 A2997 RMK A01 T01310015  RH  046%=      5-min Rain = 0
KASR 240510Z 18008KT 13/02 A2997 RMK A01 T01300017  RH  047%=      5-min Rain = 0
KASR 240515Z 19008KT 13/02 A2997 RMK A01 T01270016  RH  047%=      5-min Rain = 0
KASR 240520Z 20007KT 12/02 A2997 RMK A01 T01230016  RH  049%=      5-min Rain = 0
KASR 240525Z 20007KT 12/02 A2997 RMK A01 T01210016  RH  049%=      5-min Rain = 0
KASR 240530Z 20007KT 12/02 A2996 RMK A01 T01210016  RH  049%=      5-min Rain = 0
KASR 240535Z 20007KT 12/02 A2996 RMK A01 T01200016  RH  050%=      5-min Rain = 0
KASR 240540Z 20008KT 12/02 A2996 RMK A01 T01190017  RH  050%=      5-min Rain = 0
KASR 240545Z 20007KT 12/02 A2996 RMK A01 T01190017  RH  050%=      5-min Rain = 0
KASR 240550Z 20008KT 12/02 A2996 RMK A01 T01180017  RH  051%=      5-min Rain = 0
KASR 240555Z 19008KT 12/02 A2996 RMK A01 T01180017  RH  050%=      5-min Rain = 0
KASR 240600Z 19008KT 12/02 A2996 RMK A01 T01200016  RH  050%=      5-min Rain = 0
KASR 240605Z 19008KT 12/02 A2996 RMK A01 T01200016  RH  049%=      5-min Rain = 0
KASR 240610Z 19008KT 12/02 A2996 RMK A01 T01200017  RH  050%=      5-min Rain = 0
KASR 240615Z 19008KT 12/02 A2996 RMK A01 T01200018  RH  050%=      5-min Rain = 0
KASR 240620Z 19007KT 12/02 A2996 RMK A01 T01200018  RH  050%=      5-min Rain = 0
KASR 240625Z 19008KT 12/02 A2996 RMK A01 T01200018  RH  050%=      5-min Rain = 0
KASR 240630Z 19008KT 12/02 A2996 RMK A01 T01200018  RH  050%=      5-min Rain = 0
KASR 240635Z 20008KT 12/02 A2996 RMK A01 T01220018  RH  050%=      5-min Rain = 0
KASR 240640Z 20008KT 12/02 A2996 RMK A01 T01220018  RH  050%=      5-min Rain = 0
KASR 240645Z 19008KT 12/02 A2996 RMK A01 T01200018  RH  050%=      5-min Rain = 0
KASR 240650Z 19008KT 12/02 A2996 RMK A01 T01190018  RH  050%=      5-min Rain = 0
KASR 240655Z 19008KT 12/02 A2996 RMK A01 T01170018  RH  051%=      5-min Rain = 0
KASR 240700Z 19008KT 12/02 A2996 RMK A01 T01170019  RH  052%=      5-min Rain = 0
KASR 240705Z 18009KT 12/02 A2996 RMK A01 T01170019  RH  051%=      5-min Rain = 0
KASR 240710Z 18009KT 12/02 A2996 RMK A01 T01180018  RH  051%=      5-min Rain = 0
KASR 240715Z 18009KT 12/02 A2996 RMK A01 T01190017  RH  050%=      5-min Rain = 0
KASR 240720Z 18009KT 12/02 A2996 RMK A01 T01180016  RH  050%=      5-min Rain = 0
KASR 240725Z 18010KT 12/02 A2996 RMK A01 T01220016  RH  049%=      5-min Rain = 0
KASR 240730Z 18009KT 12/02 A2996 RMK A01 T01200016  RH  050%=      5-min Rain = 0
KASR 240735Z 19008KT 12/02 A2996 RMK A01 T01150017  RH  051%=      5-min Rain = 0
KASR 240740Z 19008KT 11/02 A2996 RMK A01 T01110017  RH  053%=      5-min Rain = 0
KASR 240745Z 20008KT 11/02 A2996 RMK A01 T01130017  RH  052%=      5-min Rain = 0
KASR 240750Z 18009KT 12/02 A2996 RMK A01 T01160016  RH  051%=      5-min Rain = 0
KASR 240755Z 18008KT 12/02 A2996 RMK A01 T01150017  RH  051%=      5-min Rain = 0
KASR 240800Z 19010KT 12/02 A2996 RMK A01 T01170018  RH  051%=      5-min Rain = 0
KASR 240805Z 20009KT 12/02 A2996 RMK A01 T01180017  RH  051%=      5-min Rain = 0
KASR 240810Z 19007KT 11/02 A2996 RMK A01 T01140017  RH  052%=      5-min Rain = 0
KASR 240815Z 19008KT 11/02 A2996 RMK A01 T01110018  RH  053%=      5-min Rain = 0
KASR 240820Z 19008KT 11/02 A2995 RMK A01 T01120017  RH  053%=      5-min Rain = 0
KASR 240825Z 19008KT 11/02 A2996 RMK A01 T01050017  RH  055%=      5-min Rain = 0
KASR 240830Z 19009KT 10/02 A2996 RMK A01 T01040018  RH  056%=      5-min Rain = 0
KASR 240835Z 19010KT 11/02 A2995 RMK A01 T01140019  RH  052%=      5-min Rain = 0
KASR 240840Z 19010KT 12/02 A2995 RMK A01 T01170018  RH  051%=      5-min Rain = 0
KASR 240845Z 20011KT 12/02 A2995 RMK A01 T01190019  RH  051%=      5-min Rain = 0
KASR 240850Z 20011KT 13/02 A2995 RMK A01 T01260020  RH  049%=      5-min Rain = 0
KASR 240855Z 20012KT 13/02 A2995 RMK A01 T01310021  RH  048%=      5-min Rain = 0
KASR 240900Z 21012KT 13/02 A2995 RMK A01 T01320021  RH  048%=      5-min Rain = 0
KASR 240905Z 21012KT 13/02 A2996 RMK A01 T01320022  RH  048%=      5-min Rain = 0
KASR 240910Z 21012KT 13/02 A2996 RMK A01 T01330021  RH  047%=      5-min Rain = 0
KASR 240915Z 21011KT 14/02 A2996 RMK A01 T01360023  RH  047%=      5-min Rain = 0
KASR 240920Z 21011KT 14/03 A2996 RMK A01 T01370029  RH  049%=      5-min Rain = 0
KASR 240925Z 21010KT 14/03 A2996 RMK A01 T01360030  RH  049%=      5-min Rain = 0
KASR 240930Z 21010KT 14/04 A2996 RMK A01 T01350035  RH  052%=      5-min Rain = 0
KASR 240935Z 21010KT 14/04 A2996 RMK A01 T01350039  RH  053%=      5-min Rain = 0
KASR 240940Z 21010KT 14/04 A2996 RMK A01 T01370043  RH  054%=      5-min Rain = 0
KASR 240945Z 21011KT 14/05 A2996 RMK A01 T01380047  RH  055%=      5-min Rain = 0
KASR 240950Z 21010KT 14/05 A2996 RMK A01 T01390051  RH  056%=      5-min Rain = 0
KASR 240955Z 20011KT 14/06 A2996 RMK A01 T01380055  RH  058%=      5-min Rain = 0
KASR 241000Z 20010KT 14/06 A2996 RMK A01 T01370057  RH  059%=      5-min Rain = 0
KASR 241005Z 20010KT 14/06 A2996 RMK A01 T01350057  RH  060%=      5-min Rain = 0
KASR 241010Z 20010KT 14/06 A2996 RMK A01 T01350061  RH  062%=      5-min Rain = 0
KASR 241015Z 20010KT 14/07 A2996 RMK A01 T01360065  RH  063%=      5-min Rain = 0
KASR 241020Z 20010KT 14/07 A2996 RMK A01 T01360067  RH  064%=      5-min Rain = 0
KASR 241025Z 21011KT 14/07 A2996 RMK A01 T01360070  RH  065%=      5-min Rain = 0
KASR 241030Z 21011KT 14/07 A2996 RMK A01 T01370074  RH  066%=      5-min Rain = 0
KASR 241035Z 21011KT 14/08 A2996 RMK A01 T01370075  RH  067%=      5-min Rain = 0
KASR 241040Z 21011KT 14/08 A2996 RMK A01 T01360078  RH  069%=      5-min Rain = 0
KASR 241045Z 20011KT 14/08 A2996 RMK A01 T01360080  RH  070%=      5-min Rain = 0
KASR 241050Z 21011KT 14/08 A2996 RMK A01 T01350080  RH  070%=      5-min Rain = 0
KASR 241055Z 21010KT 14/08 A2996 RMK A01 T01350083  RH  072%=      5-min Rain = 0
KASR 241100Z 21010KT 14/09 A2996 RMK A01 T01360086  RH  073%=      5-min Rain = 0
KASR 241105Z 21010KT 14/09 A2996 RMK A01 T01360089  RH  074%=      5-min Rain = 0
KASR 241110Z 21010KT 14/09 A2996 RMK A01 T01370090  RH  075%=      5-min Rain = 0
KASR 241115Z 22010KT 14/09 A2996 RMK A01 T01350091  RH  076%=      5-min Rain = 0
KASR 241120Z 22009KT 13/09 A2997 RMK A01 T01340092  RH  077%=      5-min Rain = 0
KASR 241125Z 22008KT 13/09 A2997 RMK A01 T01330092  RH  077%=      5-min Rain = 0
KASR 241130Z 22008KT 13/09 A2997 RMK A01 T01310092  RH  078%=      5-min Rain = 0
KASR 241135Z 22008KT 13/09 A2997 RMK A01 T01300091  RH  078%=      5-min Rain = 0
KASR 241140Z 23006KT 13/09 A2997 RMK A01 T01270090  RH  080%=      5-min Rain = 0
KASR 241145Z 23006KT 13/09 A2997 RMK A01 T01250090  RH  080%=      5-min Rain = 0
KASR 241150Z 23004KT 12/09 A2998 RMK A01 T01220089  RH  081%=      5-min Rain = 0
KASR 241155Z 24004KT 12/09 A2998 RMK A01 T01190088  RH  082%=      5-min Rain = 0
KASR 241200Z 24005KT 12/09 A2998 RMK A01 T01170087  RH  084%=      5-min Rain = 0
KASR 241205Z 25005KT 12/09 A2999 RMK A01 T01150087  RH  085%=      5-min Rain = 0
KASR 241210Z 25005KT 12/09 A2999 RMK A01 T01150089  RH  085%=      5-min Rain = 0
KASR 241215Z 27005KT 12/09 A2999 RMK A01 T01150089  RH  085%=      5-min Rain = 0
KASR 241220Z 27007KT 11/09 A2999 RMK A01 T01140089  RH  086%=      5-min Rain = 0
KASR 241225Z 27009KT 12/09 A2999 RMK A01 T01180092  RH  085%=      5-min Rain = 0
KASR 241230Z 28007KT 12/09 A30 RMK A01 T01200092  RH  084%=      5-min Rain = 0
KASR 241235Z 27006KT 12/09 A30 RMK A01 T01160090  RH  085%=      5-min Rain = 0
KASR 241240Z 27007KT 12/09 A30 RMK A01 T01170088  RH  084%=      5-min Rain = 0
KASR 241245Z 26008KT 12/09 A30 RMK A01 T01180085  RH  082%=      5-min Rain = 0
KASR 241250Z 25007KT 12/08 A30 RMK A01 T01190084  RH  081%=      5-min Rain = 0
KASR 241255Z 24007KT 12/09 A30 RMK A01 T01190085  RH  081%=      5-min Rain = 0
KASR 241300Z 24007KT 12/09 A30 RMK A01 T01200085  RH  081%=      5-min Rain = 0
KASR 241305Z 24007KT 12/09 A30 RMK A01 T01200085  RH  080%=      5-min Rain = 0
KASR 241310Z 24007KT 12/09 A30 RMK A01 T01200085  RH  080%=      5-min Rain = 0
KASR 241315Z 25007KT 12/09 A30 RMK A01 T01220086  RH  080%=      5-min Rain = 0
KASR 241320Z 25007KT 12/09 A30 RMK A01 T01240087  RH  079%=      5-min Rain = 0
KASR 241325Z 25007KT 13/09 A3001 RMK A01 T01270088  RH  079%=      5-min Rain = 0
KASR 241330Z 24007KT 13/09 A3001 RMK A01 T01260089  RH  079%=      5-min Rain = 0
KASR 241335Z 24006KT 13/09 A3001 RMK A01 T01270091  RH  080%=      5-min Rain = 0
KASR 241340Z 26005KT 13/09 A3002 RMK A01 T01300094  RH  080%=      5-min Rain = 0
KASR 241345Z 29005KT 13/10 A3003 RMK A01 T01310097  RH  081%=      5-min Rain = 0
KASR 241350Z 32008KT 14/10 A3003 RMK A01 T01380102  RH  080%=      5-min Rain = 0
KASR 241355Z 32007KT 14/10 A3004 RMK A01 T01400099  RH  078%=      5-min Rain = 0
KASR 241400Z 33007KT 14/10 A3004 RMK A01 T01390097  RH  077%=      5-min Rain = 0
KASR 241405Z 33008KT 14/09 A3004 RMK A01 T01350093  RH  077%=      5-min Rain = 0
KASR 241410Z 30007KT 14/09 A3004 RMK A01 T01370093  RH  076%=      5-min Rain = 0
KASR 241415Z 29006KT 14/09 A3004 RMK A01 T01400094  RH  075%=      5-min Rain = 0
KASR 241420Z 31006KT 14/10 A3005 RMK A01 T01430097  RH  075%=      5-min Rain = 0
KASR 241425Z 32007KT 14/10 A3005 RMK A01 T01440099  RH  076%=      5-min Rain = 0
KASR 241430Z 33004KT 14/09 A3005 RMK A01 T01380086  RH  072%=      5-min Rain = 0
KASR 241435Z 30004KT 14/09 A3005 RMK A01 T01380087  RH  073%=      5-min Rain = 0
KASR 241440Z 31006KT 14/10 A3006 RMK A01 T01440095  RH  074%=      5-min Rain = 0
KASR 241445Z 32006KT 15/09 A3006 RMK A01 T01450090  RH  071%=      5-min Rain = 0
KASR 241450Z 31004KT 15/09 A3006 RMK A01 T01510092  RH  069%=      5-min Rain = 0
KASR 241455Z 27006KT 16/09 A3006 RMK A01 T01550094  RH  068%=      5-min Rain = 0
KASR 241500Z 26007KT 16/10 A3005 RMK A01 T01580098  RH  068%=      5-min Rain = 0
KASR 241505Z 26008G13KT 16/10 A3005 RMK A01 T01620102  RH  069%=      5-min Rain = 0
KASR 241510Z 25008KT 16/10 A3006 RMK A01 T01630104  RH  069%=      5-min Rain = 0
KASR 241515Z 28008KT 17/10 A3006 RMK A01 T01660102  RH  067%=      5-min Rain = 0
KASR 241520Z 29007KT 17/10 A3006 RMK A01 T01680101  RH  066%=      5-min Rain = 0
KASR 241525Z 29009KT 17/11 A3006 RMK A01 T01700106  RH  067%=      5-min Rain = 0
KASR 241530Z 27009KT 17/11 A3006 RMK A01 T01710109  RH  068%=      5-min Rain = 0
KASR 241535Z 27010KT 17/11 A3006 RMK A01 T01720110  RH  068%=      5-min Rain = 0
KASR 241540Z 27009KT 17/11 A3006 RMK A01 T01720110  RH  068%=      5-min Rain = 0
KASR 241545Z 27008G13KT 18/11 A3006 RMK A01 T01760107  RH  065%=      5-min Rain = 0
KASR 241550Z 26009KT 18/11 A3006 RMK A01 T01750106  RH  065%=      5-min Rain = 0
KASR 241555Z 27008KT 17/10 A3007 RMK A01 T01740101  RH  063%=      5-min Rain = 0
KASR 241600Z 24007KT 18/10 A3007 RMK A01 T01770102  RH  062%=      5-min Rain = 0
KASR 241605Z 25008KT 18/10 A3007 RMK A01 T01820101  RH  060%=      5-min Rain = 0
KASR 241610Z 27009KT 18/09 A3006 RMK A01 T01800088  RH  056%=      5-min Rain = 0
KASR 241615Z 28007KT 18/08 A3006 RMK A01 T01790077  RH  052%=      5-min Rain = 0
KASR 241620Z 27008KT 18/07 A3006 RMK A01 T01820066  RH  047%=      5-min Rain = 0
KASR 241625Z 28007KT 18/05 A3007 RMK A01 T01800053  RH  044%=      5-min Rain = 0
KASR 241630Z 28009KT 18/05 A3007 RMK A01 T01780054  RH  044%=      5-min Rain = 0
KASR 241635Z 26008KT 18/04 A3007 RMK A01 T01780043  RH  041%=      5-min Rain = 0
KASR 241640Z 26008KT 18/05 A3007 RMK A01 T01780045  RH  042%=      5-min Rain = 0
KASR 241645Z 26007KT 18/04 A3007 RMK A01 T01790042  RH  041%=      5-min Rain = 0
KASR 241650Z 26008KT 18/04 A3007 RMK A01 T01840039  RH  039%=      5-min Rain = 0
KASR 241655Z 27007KT 18/03 A3007 RMK A01 T01840030  RH  036%=      5-min Rain = 0
KASR 241700Z 27007KT 18/04 A3007 RMK A01 T01840036  RH  038%=      5-min Rain = 0
KASR 241705Z 26008KT 19/04 A3007 RMK A01 T01850039  RH  038%=      5-min Rain = 0
KASR 241710Z 25008KT 19/04 A3007 RMK A01 T01860041  RH  039%=      5-min Rain = 0
KASR 241715Z 27007G12KT 19/05 A3007 RMK A01 T01890045  RH  039%=      5-min Rain = 0
KASR 241720Z 27008KT 19/05 A3007 RMK A01 T01910045  RH  039%=      5-min Rain = 0
KASR 241725Z 26007KT 19/04 A3007 RMK A01 T01940039  RH  036%=      5-min Rain = 0
KASR 241730Z 26005G10KT 19/04 A3006 RMK A01 T01940042  RH  037%=      5-min Rain = 0
KASR 241735Z 32005KT 19/04 A3006 RMK A01 T01940042  RH  037%=      5-min Rain = 0
KASR 241740Z 31006KT 20/05 A3006 RMK A01 T01950049  RH  039%=      5-min Rain = 0
KASR 241745Z 29005KT 19/04 A3006 RMK A01 T01930042  RH  037%=      5-min Rain = 0
KASR 241750Z 31007KT 19/05 A3006 RMK A01 T01940049  RH  039%=      5-min Rain = 0
KASR 241755Z 31007KT 19/05 A3006 RMK A01 T01940049  RH  039%=      5-min Rain = 0
KASR 241800Z 32008KT 20/05 A3005 RMK A01 T01970053  RH  039%=      5-min Rain = 0
KASR 241805Z 31007KT 20/05 A3006 RMK A01 T01980051  RH  039%=      5-min Rain = 0
KASR 241810Z 31008KT 20/05 A3005 RMK A01 T02000052  RH  039%=      5-min Rain = 0
KASR 241815Z 31006G11KT 20/05 A3005 RMK A01 T02020050  RH  037%=      5-min Rain = 0
KASR 241820Z 30006KT 20/04 A3005 RMK A01 T02000044  RH  036%=      5-min Rain = 0
KASR 241825Z 30005G10KT 21/05 A3005 RMK A01 T02070049  RH  036%=      5-min Rain = 0
KASR 241830Z 30007KT 21/05 A3005 RMK A01 T02060045  RH  035%=      5-min Rain = 0
KASR 241835Z 32005KT 20/05 A3005 RMK A01 T02020047  RH  037%=      5-min Rain = 0
KASR 241840Z 29006G11KT 20/04 A3005 RMK A01 T02040044  RH  035%=      5-min Rain = 0
KASR 241845Z 33004KT 21/05 A3005 RMK A01 T02060051  RH  037%=      5-min Rain = 0
KASR 241850Z 30005KT 21/06 A3005 RMK A01 T02120059  RH  037%=      5-min Rain = 0
KASR 241855Z 25005KT 21/05 A3005 RMK A01 T02120046  RH  034%=      5-min Rain = 0
KASR 241900Z 28002KT 21/05 A3005 RMK A01 T02080045  RH  035%=      5-min Rain = 0
KASR 241905Z 28004G11KT 21/05 A3005 RMK A01 T02120048  RH  034%=      5-min Rain = 0
KASR 241910Z 29006KT 22/05 A3005 RMK A01 T02150054  RH  035%=      5-min Rain = 0
KASR 241915Z 33006KT 21/06 A3005 RMK A01 T02140057  RH  037%=      5-min Rain = 0
KASR 241920Z 31006G11KT 22/06 A3004 RMK A01 T02170058  RH  036%=      5-min Rain = 0
KASR 241925Z 31007KT 22/06 A3004 RMK A01 T02190061  RH  036%=      5-min Rain = 0
KASR 241930Z 33005KT 22/06 A3003 RMK A01 T02150055  RH  036%=      5-min Rain = 0
KASR 241935Z 21002KT 22/06 A3003 RMK A01 T02180055  RH  035%=      5-min Rain = 0
KASR 241940Z 23002KT 22/06 A3002 RMK A01 T02230059  RH  035%=      5-min Rain = 0
KASR 241945Z 28004KT 22/05 A3002 RMK A01 T02240054  RH  034%=      5-min Rain = 0
KASR 241950Z 32004KT 22/06 A3002 RMK A01 T02240064  RH  036%=      5-min Rain = 0
KASR 241955Z 33005KT 23/06 A3002 RMK A01 T02270064  RH  035%=      5-min Rain = 0
KASR 242000Z 27005KT 23/06 A3002 RMK A01 T02300056  RH  033%=      5-min Rain = 0
KASR 242005Z 31005KT 23/06 A3001 RMK A01 T02310058  RH  033%=      5-min Rain = 0
KASR 242010Z 30005KT 23/06 A3001 RMK A01 T02310057  RH  033%=      5-min Rain = 0
KASR 242015Z 23002KT 23/05 A3001 RMK A01 T02310046  RH  030%=      5-min Rain = 0
KASR 242020Z 31005G11KT 23/05 A3001 RMK A01 T02280053  RH  032%=      5-min Rain = 0
KASR 242025Z 31005KT 23/06 A3001 RMK A01 T02270056  RH  034%=      5-min Rain = 0
KASR 242030Z 33005KT 23/06 A3001 RMK A01 T02280063  RH  035%=      5-min Rain = 0
KASR 242035Z 34005KT 23/06 A30 RMK A01 T02310061  RH  034%=      5-min Rain = 0
KASR 242040Z 34008KT 23/07 A30 RMK A01 T02330066  RH  034%=      5-min Rain = 0
KASR 242045Z 35004KT 23/06 A30 RMK A01 T02290059  RH  034%=      5-min Rain = 0
KASR 242050Z 31005KT 23/06 A30 RMK A01 T02300058  RH  033%=      5-min Rain = 0
KASR 242055Z 34006G11KT 23/06 A30 RMK A01 T02310062  RH  034%=      5-min Rain = 0
KASR 242100Z 34007KT 23/06 A30 RMK A01 T02310062  RH  034%=      5-min Rain = 0
KASR 242105Z 36007KT 24/07 A30 RMK A01 T02360068  RH  034%=      5-min Rain = 0
KASR 242110Z 35008G13KT 23/07 A30 RMK A01 T02340066  RH  034%=      5-min Rain = 0
KASR 242115Z 34007KT 23/07 A2999 RMK A01 T02340069  RH  035%=      5-min Rain = 0
KASR 242120Z 35007KT 23/07 A2999 RMK A01 T02320066  RH  035%=      5-min Rain = 0
KASR 242125Z 34006KT 23/07 A2999 RMK A01 T02330071  RH  036%=      5-min Rain = 0
KASR 242130Z 35007KT 23/07 A2999 RMK A01 T02340067  RH  034%=      5-min Rain = 0
KASR 242135Z 35007G12KT 24/07 A2999 RMK A01 T02360072  RH  035%=      5-min Rain = 0
KASR 242140Z 01009KT 23/07 A2999 RMK A01 T02340070  RH  035%=      5-min Rain = 0
KASR 242145Z 00008KT 23/07 A2999 RMK A01 T02320068  RH  035%=      5-min Rain = 0
KASR 242150Z 36008KT 23/07 A2999 RMK A01 T02340070  RH  035%=      5-min Rain = 0
KASR 242155Z 00008KT 23/07 A2999 RMK A01 T02340074  RH  036%=      5-min Rain = 0
KASR 242200Z 36008KT 24/07 A2998 RMK A01 T02350073  RH  036%=      5-min Rain = 0
KASR 242205Z 01007KT 23/07 A2998 RMK A01 T02330074  RH  037%=      5-min Rain = 0
KASR 242210Z 35007KT 23/08 A2998 RMK A01 T02330077  RH  037%=      5-min Rain = 0
KASR 242215Z 01008KT 24/07 A2998 RMK A01 T02380073  RH  035%=      5-min Rain = 0
KASR 242220Z 01009KT 24/07 A2998 RMK A01 T02380071  RH  035%=      5-min Rain = 0
KASR 242225Z 35009KT 24/08 A2998 RMK A01 T02390077  RH  036%=      5-min Rain = 0
KASR 242230Z 35008KT 24/08 A2998 RMK A01 T02370075  RH  036%=      5-min Rain = 0
KASR 242235Z 01008KT 24/07 A2998 RMK A01 T02400073  RH  035%=      5-min Rain = 0
KASR 242240Z 00010KT 24/07 A2998 RMK A01 T02370071  RH  035%=      5-min Rain = 0
KASR 242245Z 00010KT 24/07 A2998 RMK A01 T02380071  RH  035%=      5-min Rain = 0
KASR 242250Z 00009KT 24/07 A2998 RMK A01 T02370072  RH  035%=      5-min Rain = 0
KASR 242255Z 35008KT 24/07 A2998 RMK A01 T02390070  RH  034%=      5-min Rain = 0
KASR 242300Z 35009KT 24/07 A2998 RMK A01 T02380074  RH  035%=      5-min Rain = 0
KASR 242305Z 36008KT 24/07 A2998 RMK A01 T02370072  RH  035%=      5-min Rain = 0
KASR 242310Z 35009KT 24/08 A2998 RMK A01 T02390075  RH  035%=      5-min Rain = 0
KASR 242315Z 35011KT 24/07 A2999 RMK A01 T02360072  RH  035%=      5-min Rain = 0
KASR 242320Z 35012KT 23/07 A2999 RMK A01 T02340070  RH  035%=      5-min Rain = 0
KASR 242325Z 36011KT 23/07 A2998 RMK A01 T02340069  RH  035%=      5-min Rain = 0
KASR 242330Z 36011KT 23/07 A2998 RMK A01 T02340066  RH  034%=      5-min Rain = 0
KASR 242335Z 35010KT 23/07 A2999 RMK A01 T02340069  RH  035%=      5-min Rain = 0
KASR 242340Z 36010KT 23/07 A2999 RMK A01 T02320068  RH  035%=      5-min Rain = 0
KASR 242345Z 00011KT 23/06 A2999 RMK A01 T02340064  RH  034%=      5-min Rain = 0
KASR 242350Z 36009G14KT 23/07 A2999 RMK A01 T02340065  RH  034%=      5-min Rain = 0
KASR 242355Z 35011KT 23/07 A2999 RMK A01 T02300065  RH  035%=      5-min Rain = 0
KASR 250000Z 35010KT 23/07 A2999 RMK A01 T02280065  RH  035%=      5-min Rain = 0
KASR 250005Z 00010KT 23/06 A2999 RMK A01 T02280062  RH  035%=      5-min Rain = 0
KASR 250010Z 01010KT 23/06 A2999 RMK A01 T02290057  RH  033%=      5-min Rain = 0
KASR 250015Z 00009KT 23/06 A2999 RMK A01 T02270062  RH  035%=      5-min Rain = 0
KASR 250020Z 01007KT 23/06 A2999 RMK A01 T02260063  RH  035%=      5-min Rain = 0
KASR 250025Z 01007KT 23/06 A2999 RMK A01 T02250063  RH  036%=      5-min Rain = 0
KASR 250030Z 01005KT 22/06 A2999 RMK A01 T02220064  RH  036%=      5-min Rain = 0
KASR 250035Z 02005KT 22/06 A30 RMK A01 T02190064  RH  037%=      5-min Rain = 0
KASR 250040Z 03005KT 22/06 A30 RMK A01 T02160063  RH  037%=      5-min Rain = 0
KASR 250045Z 03005KT 21/06 A30 RMK A01 T02130063  RH  038%=      5-min Rain = 0
KASR 250050Z 04006KT 21/06 A30 RMK A01 T02070064  RH  040%=      5-min Rain = 0
KASR 250055Z 05006KT 20/07 A30 RMK A01 T02030065  RH  041%=      5-min Rain = 0
KASR 250100Z 06006KT 20/07 A30 RMK A01 T01990069  RH  044%=      5-min Rain = 0
KASR 250105Z 06005KT 19/07 A30 RMK A01 T01930072  RH  046%=      5-min Rain = 0
KASR 250110Z 06005KT 19/07 A30 RMK A01 T01890073  RH  048%=      5-min Rain = 0
KASR 250115Z 06005KT 19/07 A30 RMK A01 T01870074  RH  048%=      5-min Rain = 0
KASR 250120Z 08005KT 18/07 A30 RMK A01 T01840074  RH  049%=      5-min Rain = 0
KASR 250125Z 08006KT 18/08 A30 RMK A01 T01800075  RH  051%=      5-min Rain = 0
KASR 250130Z 07006KT 18/08 A30 RMK A01 T01770075  RH  052%=      5-min Rain = 0
KASR 250135Z 06006KT 17/08 A30 RMK A01 T01730075  RH  053%=      5-min Rain = 0
KASR 250140Z 06006KT 17/07 A30 RMK A01 T01700074  RH  054%=      5-min Rain = 0
KASR 250145Z 06006KT 17/08 A30 RMK A01 T01700075  RH  054%=      5-min Rain = 0
KASR 250150Z 06006KT 17/08 A3001 RMK A01 T01710076  RH  054%=      5-min Rain = 0
KASR 250155Z 06006KT 17/08 A3001 RMK A01 T01680076  RH  055%=      5-min Rain = 0
KASR 250200Z 05005KT 17/08 A3002 RMK A01 T01660075  RH  056%=      5-min Rain = 0
KASR 250205Z 06005KT 16/08 A3002 RMK A01 T01630075  RH  057%=      5-min Rain = 0
KASR 250210Z 05006KT 16/08 A3002 RMK A01 T01600075  RH  058%=      5-min Rain = 0
KASR 250215Z 05006KT 16/08 A3002 RMK A01 T01600076  RH  058%=      5-min Rain = 0
KASR 250220Z 04006KT 16/08 A3003 RMK A01 T01590076  RH  059%=      5-min Rain = 0
KASR 250225Z 04005KT 16/08 A3003 RMK A01 T01570076  RH  059%=      5-min Rain = 0
KASR 250230Z 04005KT 16/08 A3003 RMK A01 T01550076  RH  060%=      5-min Rain = 0
KASR 250235Z 04005KT 15/08 A3004 RMK A01 T01520076  RH  061%=      5-min Rain = 0
KASR 250240Z 06005KT 15/08 A3003 RMK A01 T01490076  RH  062%=      5-min Rain = 0
KASR 250245Z 06005KT 15/08 A3004 RMK A01 T01480076  RH  063%=      5-min Rain = 0
KASR 250250Z 05005KT 15/08 A3004 RMK A01 T01470075  RH  063%=      5-min Rain = 0
KASR 250255Z 06005KT 15/08 A3004 RMK A01 T01470075  RH  063%=      5-min Rain = 0
KASR 250300Z 07005KT 15/08 A3004 RMK A01 T01450075  RH  063%=      5-min Rain = 0
KASR 250305Z 07005KT 14/07 A3004 RMK A01 T01430074  RH  064%=      5-min Rain = 0
KASR 250310Z 06006KT 14/07 A3004 RMK A01 T01430074  RH  064%=      5-min Rain = 0
KASR 250315Z 06006KT 14/07 A3005 RMK A01 T01420073  RH  064%=      5-min Rain = 0
KASR 250320Z 06005KT 14/07 A3005 RMK A01 T01420074  RH  064%=      5-min Rain = 0
KASR 250325Z 07005KT 14/07 A3005 RMK A01 T01410074  RH  065%=      5-min Rain = 0
KASR 250330Z 07005KT 14/07 A3005 RMK A01 T01390073  RH  065%=      5-min Rain = 0
KASR 250335Z 07005KT 14/07 A3006 RMK A01 T01380073  RH  066%=      5-min Rain = 0
KASR 250340Z 08006KT 14/07 A3006 RMK A01 T01370073  RH  066%=      5-min Rain = 0
KASR 250345Z 07006KT 14/07 A3006 RMK A01 T01370074  RH  066%=      5-min Rain = 0
KASR 250350Z 06006KT 14/07 A3007 RMK A01 T01370074  RH  067%=      5-min Rain = 0
KASR 250355Z 06005KT 14/07 A3007 RMK A01 T01370074  RH  067%=      5-min Rain = 0
KASR 250400Z 06004KT 14/07 A3007 RMK A01 T01360074  RH  067%=      5-min Rain = 0
KASR 250405Z 06005KT 14/07 A3007 RMK A01 T01350074  RH  068%=      5-min Rain = 0
KASR 250410Z 07004KT 13/07 A3007 RMK A01 T01330074  RH  068%=      5-min Rain = 0
KASR 250415Z 08003KT 13/07 A3007 RMK A01 T01310073  RH  069%=      5-min Rain = 0
KASR 250420Z 11003KT 13/07 A3007 RMK A01 T01270072  RH  070%=      5-min Rain = 0
KASR 250425Z 10002KT 12/07 A3008 RMK A01 T01210069  RH  072%=      5-min Rain = 0
KASR 250430Z 09002KT 12/07 A3008 RMK A01 T01180069  RH  073%=      5-min Rain = 0
KASR 250435Z 10003KT 12/07 A3008 RMK A01 T01170069  RH  073%=      5-min Rain = 0
KASR 250440Z 08004KT 12/07 A3008 RMK A01 T01160069  RH  074%=      5-min Rain = 0
KASR 250445Z 10004KT 12/07 A3008 RMK A01 T01150070  RH  075%=      5-min Rain = 0
KASR 250450Z 09004KT 12/07 A3008 RMK A01 T01150069  RH  075%=      5-min Rain = 0
KASR 250455Z 09003KT 11/07 A3009 RMK A01 T01110068  RH  076%=      5-min Rain = 0

Page generated in 0.0103 seconds.